sensor_id;sensor_type;location;lat;lon;timestamp;temperature;humidity
53268;DHT22;39156;51.176;6.738;2023-07-20T00:00:45;18.20;62.10
53268;DHT22;39156;51.176;6.738;2023-07-20T00:03:12;18.10;62.30
53268;DHT22;39156;51.176;6.738;2023-07-20T00:05:43;18.10;62.70
53268;DHT22;39156;51.176;6.738;2023-07-20T00:08:09;18.10;62.90
53268;DHT22;39156;51.176;6.738;2023-07-20T00:10:35;18.00;63.00
53268;DHT22;39156;51.176;6.738;2023-07-20T00:13:00;18.00;63.00
53268;DHT22;39156;51.176;6.738;2023-07-20T00:15:26;18.00;63.20
53268;DHT22;39156;51.176;6.738;2023-07-20T00:17:52;18.00;63.20
53268;DHT22;39156;51.176;6.738;2023-07-20T00:20:18;18.00;63.30
53268;DHT22;39156;51.176;6.738;2023-07-20T00:22:43;18.00;63.40
53268;DHT22;39156;51.176;6.738;2023-07-20T00:25:09;18.00;63.50
53268;DHT22;39156;51.176;6.738;2023-07-20T00:27:37;17.90;63.50
53268;DHT22;39156;51.176;6.738;2023-07-20T00:30:04;17.90;63.70
53268;DHT22;39156;51.176;6.738;2023-07-20T00:32:30;18.00;63.80
53268;DHT22;39156;51.176;6.738;2023-07-20T00:34:56;18.00;63.90
53268;DHT22;39156;51.176;6.738;2023-07-20T00:37:21;18.00;63.90
53268;DHT22;39156;51.176;6.738;2023-07-20T00:39:47;18.00;64.00
53268;DHT22;39156;51.176;6.738;2023-07-20T00:42:13;18.00;63.90
53268;DHT22;39156;51.176;6.738;2023-07-20T00:44:38;18.00;63.90
53268;DHT22;39156;51.176;6.738;2023-07-20T00:47:05;18.00;64.00
53268;DHT22;39156;51.176;6.738;2023-07-20T00:49:32;18.00;64.00
53268;DHT22;39156;51.176;6.738;2023-07-20T00:52:00;18.00;64.10
53268;DHT22;39156;51.176;6.738;2023-07-20T00:54:27;18.00;64.30
53268;DHT22;39156;51.176;6.738;2023-07-20T00:56:53;18.00;64.40
53268;DHT22;39156;51.176;6.738;2023-07-20T00:59:20;18.00;64.50
53268;DHT22;39156;51.176;6.738;2023-07-20T01:01:46;17.90;64.40
53268;DHT22;39156;51.176;6.738;2023-07-20T01:04:12;18.10;64.60
53268;DHT22;39156;51.176;6.738;2023-07-20T01:09:18;18.00;64.60
53268;DHT22;39156;51.176;6.738;2023-07-20T01:12:07;18.10;65.00
53268;DHT22;39156;51.176;6.738;2023-07-20T01:14:35;18.00;64.90
53268;DHT22;39156;51.176;6.738;2023-07-20T01:17:02;18.00;64.70
53268;DHT22;39156;51.176;6.738;2023-07-20T01:19:28;18.00;64.80
53268;DHT22;39156;51.176;6.738;2023-07-20T01:21:59;18.00;64.80
53268;DHT22;39156;51.176;6.738;2023-07-20T01:24:38;18.00;65.00
53268;DHT22;39156;51.176;6.738;2023-07-20T01:30:25;18.00;65.00
53268;DHT22;39156;51.176;6.738;2023-07-20T01:33:09;17.90;64.80
53268;DHT22;39156;51.176;6.738;2023-07-20T01:35:38;17.90;64.90
53268;DHT22;39156;51.176;6.738;2023-07-20T01:38:04;17.90;65.20
53268;DHT22;39156;51.176;6.738;2023-07-20T01:40:30;17.90;65.30
53268;DHT22;39156;51.176;6.738;2023-07-20T01:42:56;17.80;65.50
53268;DHT22;39156;51.176;6.738;2023-07-20T01:45:22;17.80;65.60
53268;DHT22;39156;51.176;6.738;2023-07-20T01:47:47;17.80;65.80
53268;DHT22;39156;51.176;6.738;2023-07-20T01:50:13;17.70;66.00
53268;DHT22;39156;51.176;6.738;2023-07-20T01:52:39;17.60;66.10
53268;DHT22;39156;51.176;6.738;2023-07-20T01:55:05;17.70;66.40
53268;DHT22;39156;51.176;6.738;2023-07-20T01:57:31;17.60;66.60
53268;DHT22;39156;51.176;6.738;2023-07-20T01:59:57;17.50;66.70
53268;DHT22;39156;51.176;6.738;2023-07-20T02:02:26;17.50;66.90
53268;DHT22;39156;51.176;6.738;2023-07-20T02:04:52;17.50;67.00
53268;DHT22;39156;51.176;6.738;2023-07-20T02:07:17;17.50;67.20
53268;DHT22;39156;51.176;6.738;2023-07-20T02:09:43;17.40;67.30
53268;DHT22;39156;51.176;6.738;2023-07-20T02:12:09;17.40;67.50
53268;DHT22;39156;51.176;6.738;2023-07-20T02:14:34;17.40;67.70
53268;DHT22;39156;51.176;6.738;2023-07-20T02:17:00;17.30;67.80
53268;DHT22;39156;51.176;6.738;2023-07-20T02:19:27;17.30;67.90
53268;DHT22;39156;51.176;6.738;2023-07-20T02:21:52;17.30;68.00
53268;DHT22;39156;51.176;6.738;2023-07-20T02:24:18;17.20;68.20
53268;DHT22;39156;51.176;6.738;2023-07-20T02:26:44;17.30;68.40
53268;DHT22;39156;51.176;6.738;2023-07-20T02:29:10;17.20;68.50
53268;DHT22;39156;51.176;6.738;2023-07-20T02:31:38;17.20;68.70
53268;DHT22;39156;51.176;6.738;2023-07-20T02:34:05;17.20;68.80
53268;DHT22;39156;51.176;6.738;2023-07-20T02:36:31;17.20;69.00
53268;DHT22;39156;51.176;6.738;2023-07-20T02:39:00;17.20;68.70
53268;DHT22;39156;51.176;6.738;2023-07-20T02:41:30;17.20;68.80
53268;DHT22;39156;51.176;6.738;2023-07-20T02:43:56;17.10;69.00
53268;DHT22;39156;51.176;6.738;2023-07-20T02:46:22;17.20;69.20
53268;DHT22;39156;51.176;6.738;2023-07-20T02:48:48;17.10;69.30
53268;DHT22;39156;51.176;6.738;2023-07-20T02:51:13;17.10;69.40
53268;DHT22;39156;51.176;6.738;2023-07-20T02:53:39;17.10;69.50
53268;DHT22;39156;51.176;6.738;2023-07-20T02:56:05;17.10;69.60
53268;DHT22;39156;51.176;6.738;2023-07-20T02:58:30;17.10;69.70
53268;DHT22;39156;51.176;6.738;2023-07-20T03:01:02;17.10;69.70
53268;DHT22;39156;51.176;6.738;2023-07-20T03:03:28;17.00;69.80
53268;DHT22;39156;51.176;6.738;2023-07-20T03:05:54;17.00;69.90
53268;DHT22;39156;51.176;6.738;2023-07-20T03:08:21;17.00;70.00
53268;DHT22;39156;51.176;6.738;2023-07-20T03:10:47;17.00;70.10
53268;DHT22;39156;51.176;6.738;2023-07-20T03:13:13;16.90;70.20
53268;DHT22;39156;51.176;6.738;2023-07-20T03:15:39;16.90;70.20
53268;DHT22;39156;51.176;6.738;2023-07-20T03:18:05;16.70;70.20
53268;DHT22;39156;51.176;6.738;2023-07-20T03:20:31;16.80;70.40
53268;DHT22;39156;51.176;6.738;2023-07-20T03:22:57;16.70;70.50
53268;DHT22;39156;51.176;6.738;2023-07-20T03:25:22;16.70;70.60
53268;DHT22;39156;51.176;6.738;2023-07-20T03:27:48;16.70;70.70
53268;DHT22;39156;51.176;6.738;2023-07-20T03:30:14;16.70;70.90
53268;DHT22;39156;51.176;6.738;2023-07-20T03:32:40;16.60;71.00
53268;DHT22;39156;51.176;6.738;2023-07-20T03:35:06;16.60;71.10
53268;DHT22;39156;51.176;6.738;2023-07-20T03:37:32;16.50;71.30
53268;DHT22;39156;51.176;6.738;2023-07-20T03:40:00;16.50;71.50
53268;DHT22;39156;51.176;6.738;2023-07-20T03:42:25;16.50;71.60
53268;DHT22;39156;51.176;6.738;2023-07-20T03:44:51;16.50;71.80
53268;DHT22;39156;51.176;6.738;2023-07-20T03:47:17;16.50;72.00
53268;DHT22;39156;51.176;6.738;2023-07-20T03:49:43;16.50;72.10
53268;DHT22;39156;51.176;6.738;2023-07-20T03:52:09;16.50;72.30
53268;DHT22;39156;51.176;6.738;2023-07-20T03:54:34;16.50;72.30
53268;DHT22;39156;51.176;6.738;2023-07-20T03:57:00;16.50;72.30
53268;DHT22;39156;51.176;6.738;2023-07-20T03:59:26;16.50;72.50
53268;DHT22;39156;51.176;6.738;2023-07-20T04:01:52;16.50;72.50
53268;DHT22;39156;51.176;6.738;2023-07-20T04:04:17;16.60;72.60
53268;DHT22;39156;51.176;6.738;2023-07-20T04:06:43;16.50;72.40
53268;DHT22;39156;51.176;6.738;2023-07-20T04:09:12;16.60;72.50
53268;DHT22;39156;51.176;6.738;2023-07-20T04:11:38;16.50;72.60
53268;DHT22;39156;51.176;6.738;2023-07-20T04:14:04;16.50;72.70
53268;DHT22;39156;51.176;6.738;2023-07-20T04:16:30;16.50;72.70
53268;DHT22;39156;51.176;6.738;2023-07-20T04:18:56;16.60;72.80
53268;DHT22;39156;51.176;6.738;2023-07-20T04:21:23;16.50;72.70
53268;DHT22;39156;51.176;6.738;2023-07-20T04:23:51;16.60;72.80
53268;DHT22;39156;51.176;6.738;2023-07-20T04:26:16;16.60;72.90
53268;DHT22;39156;51.176;6.738;2023-07-20T04:28:42;16.60;72.80
53268;DHT22;39156;51.176;6.738;2023-07-20T04:31:15;16.60;72.90
53268;DHT22;39156;51.176;6.738;2023-07-20T04:33:41;16.60;73.20
53268;DHT22;39156;51.176;6.738;2023-07-20T04:36:07;16.70;72.90
53268;DHT22;39156;51.176;6.738;2023-07-20T04:38:33;16.70;72.90
53268;DHT22;39156;51.176;6.738;2023-07-20T04:40:59;16.70;73.70
53268;DHT22;39156;51.176;6.738;2023-07-20T04:43:25;16.80;73.00
53268;DHT22;39156;51.176;6.738;2023-07-20T04:45:51;16.70;73.00
53268;DHT22;39156;51.176;6.738;2023-07-20T04:48:17;16.80;73.10
53268;DHT22;39156;51.176;6.738;2023-07-20T04:50:46;16.80;73.00
53268;DHT22;39156;51.176;6.738;2023-07-20T04:53:14;16.90;73.20
53268;DHT22;39156;51.176;6.738;2023-07-20T04:55:40;16.80;73.20
53268;DHT22;39156;51.176;6.738;2023-07-20T04:58:15;16.90;73.20
53268;DHT22;39156;51.176;6.738;2023-07-20T05:00:42;16.90;73.20
53268;DHT22;39156;51.176;6.738;2023-07-20T05:03:08;16.90;73.20
53268;DHT22;39156;51.176;6.738;2023-07-20T05:05:33;17.00;73.30
53268;DHT22;39156;51.176;6.738;2023-07-20T05:07:59;17.00;73.40
53268;DHT22;39156;51.176;6.738;2023-07-20T05:10:25;17.10;73.50
53268;DHT22;39156;51.176;6.738;2023-07-20T05:12:51;17.20;73.30
53268;DHT22;39156;51.176;6.738;2023-07-20T05:15:16;17.30;73.00
53268;DHT22;39156;51.176;6.738;2023-07-20T05:17:42;17.40;72.70
53268;DHT22;39156;51.176;6.738;2023-07-20T05:20:08;17.50;72.80
53268;DHT22;39156;51.176;6.738;2023-07-20T05:22:38;17.70;72.80
53268;DHT22;39156;51.176;6.738;2023-07-20T05:25:10;17.80;72.80
53268;DHT22;39156;51.176;6.738;2023-07-20T05:27:37;18.00;72.70
53268;DHT22;39156;51.176;6.738;2023-07-20T05:30:03;18.10;72.30
53268;DHT22;39156;51.176;6.738;2023-07-20T05:32:29;18.40;72.00
53268;DHT22;39156;51.176;6.738;2023-07-20T05:34:55;18.50;71.40
53268;DHT22;39156;51.176;6.738;2023-07-20T05:37:21;18.70;71.20
53268;DHT22;39156;51.176;6.738;2023-07-20T05:39:47;18.80;70.90
53268;DHT22;39156;51.176;6.738;2023-07-20T05:42:13;18.90;70.40
53268;DHT22;39156;51.176;6.738;2023-07-20T05:44:39;19.00;69.90
53268;DHT22;39156;51.176;6.738;2023-07-20T05:47:06;19.00;69.50
53268;DHT22;39156;51.176;6.738;2023-07-20T05:49:32;19.10;69.40
53268;DHT22;39156;51.176;6.738;2023-07-20T05:51:57;19.10;69.10
53268;DHT22;39156;51.176;6.738;2023-07-20T05:54:26;19.10;68.90
53268;DHT22;39156;51.176;6.738;2023-07-20T05:56:52;19.10;68.80
53268;DHT22;39156;51.176;6.738;2023-07-20T05:59:18;19.10;69.00
53268;DHT22;39156;51.176;6.738;2023-07-20T06:01:49;19.10;69.10
53268;DHT22;39156;51.176;6.738;2023-07-20T06:04:15;19.20;69.10
53268;DHT22;39156;51.176;6.738;2023-07-20T06:06:41;19.20;68.90
53268;DHT22;39156;51.176;6.738;2023-07-20T06:09:07;19.30;68.70
53268;DHT22;39156;51.176;6.738;2023-07-20T06:11:37;19.30;68.40
53268;DHT22;39156;51.176;6.738;2023-07-20T06:14:04;19.30;68.00
53268;DHT22;39156;51.176;6.738;2023-07-20T06:16:30;19.40;68.30
53268;DHT22;39156;51.176;6.738;2023-07-20T06:18:55;19.30;68.00
53268;DHT22;39156;51.176;6.738;2023-07-20T06:21:22;19.30;68.10
53268;DHT22;39156;51.176;6.738;2023-07-20T06:23:47;19.30;68.20
53268;DHT22;39156;51.176;6.738;2023-07-20T06:26:13;19.20;68.30
53268;DHT22;39156;51.176;6.738;2023-07-20T06:28:38;19.30;68.50
53268;DHT22;39156;51.176;6.738;2023-07-20T06:31:04;19.30;68.10
53268;DHT22;39156;51.176;6.738;2023-07-20T06:33:30;19.40;67.90
53268;DHT22;39156;51.176;6.738;2023-07-20T06:35:56;19.40;68.20
53268;DHT22;39156;51.176;6.738;2023-07-20T06:38:24;19.60;68.90
53268;DHT22;39156;51.176;6.738;2023-07-20T06:40:51;19.90;69.30
53268;DHT22;39156;51.176;6.738;2023-07-20T06:43:16;20.20;68.70
53268;DHT22;39156;51.176;6.738;2023-07-20T06:45:42;20.40;68.70
53268;DHT22;39156;51.176;6.738;2023-07-20T06:48:08;20.60;66.40
53268;DHT22;39156;51.176;6.738;2023-07-20T06:50:34;20.70;65.50
53268;DHT22;39156;51.176;6.738;2023-07-20T06:53:00;20.70;64.60
53268;DHT22;39156;51.176;6.738;2023-07-20T06:55:28;20.70;63.80
53268;DHT22;39156;51.176;6.738;2023-07-20T06:57:54;20.50;63.60
53268;DHT22;39156;51.176;6.738;2023-07-20T07:00:20;20.40;63.60
53268;DHT22;39156;51.176;6.738;2023-07-20T07:02:45;20.40;64.10
53268;DHT22;39156;51.176;6.738;2023-07-20T07:05:11;20.50;64.90
53268;DHT22;39156;51.176;6.738;2023-07-20T07:07:38;20.60;65.20
53268;DHT22;39156;51.176;6.738;2023-07-20T07:10:05;20.90;65.40
53268;DHT22;39156;51.176;6.738;2023-07-20T07:12:34;21.20;65.20
53268;DHT22;39156;51.176;6.738;2023-07-20T07:15:02;21.60;64.70
53268;DHT22;39156;51.176;6.738;2023-07-20T07:17:28;22.00;64.20
53268;DHT22;39156;51.176;6.738;2023-07-20T07:19:54;22.40;63.70
53268;DHT22;39156;51.176;6.738;2023-07-20T07:22:21;22.90;63.30
53268;DHT22;39156;51.176;6.738;2023-07-20T07:24:47;23.40;62.30
53268;DHT22;39156;51.176;6.738;2023-07-20T07:27:13;23.90;61.40
53268;DHT22;39156;51.176;6.738;2023-07-20T07:29:41;24.40;65.80
53268;DHT22;39156;51.176;6.738;2023-07-20T07:32:09;24.90;58.10
53268;DHT22;39156;51.176;6.738;2023-07-20T07:34:36;25.40;57.00
53268;DHT22;39156;51.176;6.738;2023-07-20T07:37:03;25.50;55.70
53268;DHT22;39156;51.176;6.738;2023-07-20T07:39:30;25.60;54.30
53268;DHT22;39156;51.176;6.738;2023-07-20T07:41:56;25.70;53.70
53268;DHT22;39156;51.176;6.738;2023-07-20T07:44:22;25.50;52.60
53268;DHT22;39156;51.176;6.738;2023-07-20T07:46:48;25.50;52.50
53268;DHT22;39156;51.176;6.738;2023-07-20T07:49:14;25.40;52.10
53268;DHT22;39156;51.176;6.738;2023-07-20T07:51:40;25.30;51.90
53268;DHT22;39156;51.176;6.738;2023-07-20T07:54:06;25.30;52.20
53268;DHT22;39156;51.176;6.738;2023-07-20T07:56:32;25.40;52.60
53268;DHT22;39156;51.176;6.738;2023-07-20T07:58:57;25.50;53.30
53268;DHT22;39156;51.176;6.738;2023-07-20T08:01:23;25.80;56.00
53268;DHT22;39156;51.176;6.738;2023-07-20T08:03:49;25.90;52.30
53268;DHT22;39156;51.176;6.738;2023-07-20T08:06:15;26.00;54.80
53268;DHT22;39156;51.176;6.738;2023-07-20T08:08:40;25.90;51.10
53268;DHT22;39156;51.176;6.738;2023-07-20T08:11:07;25.80;50.00
53268;DHT22;39156;51.176;6.738;2023-07-20T08:13:34;25.70;49.50
53268;DHT22;39156;51.176;6.738;2023-07-20T08:16:00;25.60;49.50
53268;DHT22;39156;51.176;6.738;2023-07-20T08:18:29;25.70;49.90
53268;DHT22;39156;51.176;6.738;2023-07-20T08:20:55;25.80;50.60
53268;DHT22;39156;51.176;6.738;2023-07-20T08:23:20;26.20;53.00
53268;DHT22;39156;51.176;6.738;2023-07-20T08:25:46;26.50;51.60
53268;DHT22;39156;51.176;6.738;2023-07-20T08:28:15;27.00;50.60
53268;DHT22;39156;51.176;6.738;2023-07-20T08:30:46;27.40;49.00
53268;DHT22;39156;51.176;6.738;2023-07-20T08:33:16;27.70;48.10
53268;DHT22;39156;51.176;6.738;2023-07-20T08:35:46;27.90;47.40
53268;DHT22;39156;51.176;6.738;2023-07-20T08:38:12;28.20;47.40
53268;DHT22;39156;51.176;6.738;2023-07-20T08:40:43;28.50;45.90
53268;DHT22;39156;51.176;6.738;2023-07-20T08:43:11;28.70;45.50
53268;DHT22;39156;51.176;6.738;2023-07-20T08:45:39;28.90;44.30
53268;DHT22;39156;51.176;6.738;2023-07-20T08:48:07;29.00;44.20
53268;DHT22;39156;51.176;6.738;2023-07-20T08:50:34;29.10;44.50
53268;DHT22;39156;51.176;6.738;2023-07-20T08:53:00;29.20;44.40
53268;DHT22;39156;51.176;6.738;2023-07-20T08:55:27;29.30;44.10
53268;DHT22;39156;51.176;6.738;2023-07-20T08:57:57;29.40;43.60
53268;DHT22;39156;51.176;6.738;2023-07-20T09:00:25;29.50;42.70
53268;DHT22;39156;51.176;6.738;2023-07-20T09:02:53;29.60;42.40
53268;DHT22;39156;51.176;6.738;2023-07-20T09:05:20;29.70;42.20
53268;DHT22;39156;51.176;6.738;2023-07-20T09:07:48;29.90;42.60
53268;DHT22;39156;51.176;6.738;2023-07-20T09:10:14;30.00;41.60
53268;DHT22;39156;51.176;6.738;2023-07-20T09:12:41;30.10;41.30
53268;DHT22;39156;51.176;6.738;2023-07-20T09:15:08;30.10;40.80
53268;DHT22;39156;51.176;6.738;2023-07-20T09:17:35;30.00;40.50
53268;DHT22;39156;51.176;6.738;2023-07-20T09:20:04;29.80;40.20
53268;DHT22;39156;51.176;6.738;2023-07-20T09:22:36;29.60;40.10
53268;DHT22;39156;51.176;6.738;2023-07-20T09:25:11;29.30;40.10
53268;DHT22;39156;51.176;6.738;2023-07-20T09:27:47;28.90;40.00
53268;DHT22;39156;51.176;6.738;2023-07-20T09:30:15;28.70;40.30
53268;DHT22;39156;51.176;6.738;2023-07-20T09:32:48;28.50;41.50
53268;DHT22;39156;51.176;6.738;2023-07-20T09:35:17;28.40;40.60
53268;DHT22;39156;51.176;6.738;2023-07-20T09:38:00;28.40;40.90
53268;DHT22;39156;51.176;6.738;2023-07-20T09:40:27;28.20;40.70
53268;DHT22;39156;51.176;6.738;2023-07-20T09:42:54;28.20;40.70
53268;DHT22;39156;51.176;6.738;2023-07-20T09:45:30;28.00;40.80
53268;DHT22;39156;51.176;6.738;2023-07-20T09:48:05;28.00;41.10
53268;DHT22;39156;51.176;6.738;2023-07-20T09:50:32;28.00;41.80
53268;DHT22;39156;51.176;6.738;2023-07-20T09:53:00;28.10;42.30
53268;DHT22;39156;51.176;6.738;2023-07-20T09:55:27;28.10;41.70
53268;DHT22;39156;51.176;6.738;2023-07-20T09:57:54;28.20;41.60
53268;DHT22;39156;51.176;6.738;2023-07-20T10:00:21;28.30;41.20
53268;DHT22;39156;51.176;6.738;2023-07-20T10:02:46;28.30;40.80
53268;DHT22;39156;51.176;6.738;2023-07-20T10:05:15;28.20;41.80
53268;DHT22;39156;51.176;6.738;2023-07-20T10:07:47;28.10;40.60
53268;DHT22;39156;51.176;6.738;2023-07-20T10:10:18;27.90;40.20
53268;DHT22;39156;51.176;6.738;2023-07-20T10:12:47;27.80;39.80
53268;DHT22;39156;51.176;6.738;2023-07-20T10:18:25;27.80;39.50
53268;DHT22;39156;51.176;6.738;2023-07-20T10:20:55;27.70;40.20
53268;DHT22;39156;51.176;6.738;2023-07-20T10:23:22;27.60;39.80
53268;DHT22;39156;51.176;6.738;2023-07-20T10:25:50;27.40;40.10
53268;DHT22;39156;51.176;6.738;2023-07-20T10:28:16;27.00;40.20
53268;DHT22;39156;51.176;6.738;2023-07-20T10:30:42;26.80;40.80
53268;DHT22;39156;51.176;6.738;2023-07-20T10:33:08;26.50;41.30
53268;DHT22;39156;51.176;6.738;2023-07-20T10:35:57;26.30;41.30
53268;DHT22;39156;51.176;6.738;2023-07-20T10:41:21;25.90;41.50
53268;DHT22;39156;51.176;6.738;2023-07-20T10:43:50;25.70;41.80
53268;DHT22;39156;51.176;6.738;2023-07-20T10:49:09;25.50;42.40
53268;DHT22;39156;51.176;6.738;2023-07-20T10:51:44;25.40;42.10
53268;DHT22;39156;51.176;6.738;2023-07-20T10:56:43;25.40;42.30
53268;DHT22;39156;51.176;6.738;2023-07-20T10:59:20;25.30;42.30
53268;DHT22;39156;51.176;6.738;2023-07-20T11:02:06;25.30;42.00
53268;DHT22;39156;51.176;6.738;2023-07-20T11:04:46;25.20;42.00
53268;DHT22;39156;51.176;6.738;2023-07-20T11:07:16;25.20;41.70
53268;DHT22;39156;51.176;6.738;2023-07-20T11:09:43;25.10;41.80
53268;DHT22;39156;51.176;6.738;2023-07-20T11:12:13;25.00;42.10
53268;DHT22;39156;51.176;6.738;2023-07-20T11:14:56;25.00;42.10
53268;DHT22;39156;51.176;6.738;2023-07-20T11:17:33;25.00;42.60
53268;DHT22;39156;51.176;6.738;2023-07-20T11:20:00;25.00;42.10
53268;DHT22;39156;51.176;6.738;2023-07-20T11:22:28;25.10;42.40
53268;DHT22;39156;51.176;6.738;2023-07-20T11:24:56;25.10;42.20
53268;DHT22;39156;51.176;6.738;2023-07-20T11:27:23;25.00;42.00
53268;DHT22;39156;51.176;6.738;2023-07-20T11:29:49;25.00;41.80
53268;DHT22;39156;51.176;6.738;2023-07-20T11:32:22;25.00;42.00
53268;DHT22;39156;51.176;6.738;2023-07-20T11:34:49;25.10;42.10
53268;DHT22;39156;51.176;6.738;2023-07-20T11:37:15;25.20;42.00
53268;DHT22;39156;51.176;6.738;2023-07-20T11:39:41;25.40;42.40
53268;DHT22;39156;51.176;6.738;2023-07-20T11:42:07;25.40;41.30
53268;DHT22;39156;51.176;6.738;2023-07-20T11:44:33;25.50;41.20
53268;DHT22;39156;51.176;6.738;2023-07-20T11:49:43;25.60;41.40
53268;DHT22;39156;51.176;6.738;2023-07-20T11:52:15;25.70;41.10
53268;DHT22;39156;51.176;6.738;2023-07-20T11:54:42;25.80;40.60
53268;DHT22;39156;51.176;6.738;2023-07-20T11:57:18;25.90;40.60
53268;DHT22;39156;51.176;6.738;2023-07-20T11:59:57;26.10;41.00
53268;DHT22;39156;51.176;6.738;2023-07-20T12:02:27;26.20;40.60
53268;DHT22;39156;51.176;6.738;2023-07-20T12:04:57;26.30;40.50
53268;DHT22;39156;51.176;6.738;2023-07-20T12:07:26;26.40;40.40
53268;DHT22;39156;51.176;6.738;2023-07-20T12:10:11;26.50;40.40
53268;DHT22;39156;51.176;6.738;2023-07-20T12:12:42;26.50;40.40
53268;DHT22;39156;51.176;6.738;2023-07-20T12:15:26;26.60;40.30
53268;DHT22;39156;51.176;6.738;2023-07-20T12:17:56;26.60;40.20
53268;DHT22;39156;51.176;6.738;2023-07-20T12:20:36;26.70;40.30
53268;DHT22;39156;51.176;6.738;2023-07-20T12:23:12;26.80;39.60
53268;DHT22;39156;51.176;6.738;2023-07-20T12:25:39;26.90;39.10
53268;DHT22;39156;51.176;6.738;2023-07-20T12:28:11;27.00;38.90
53268;DHT22;39156;51.176;6.738;2023-07-20T12:30:38;27.20;38.30
53268;DHT22;39156;51.176;6.738;2023-07-20T12:33:04;27.20;38.80
53268;DHT22;39156;51.176;6.738;2023-07-20T12:35:30;27.30;38.80
53268;DHT22;39156;51.176;6.738;2023-07-20T12:37:57;27.40;39.90
53268;DHT22;39156;51.176;6.738;2023-07-20T12:40:22;27.50;38.70
53268;DHT22;39156;51.176;6.738;2023-07-20T12:42:48;27.60;39.80
53268;DHT22;39156;51.176;6.738;2023-07-20T12:45:14;27.60;38.70
53268;DHT22;39156;51.176;6.738;2023-07-20T12:47:40;27.60;38.40
53268;DHT22;39156;51.176;6.738;2023-07-20T12:50:08;27.60;38.50
53268;DHT22;39156;51.176;6.738;2023-07-20T12:52:38;27.60;38.40
53268;DHT22;39156;51.176;6.738;2023-07-20T12:55:08;27.50;38.20
53268;DHT22;39156;51.176;6.738;2023-07-20T12:57:35;27.50;38.10
53268;DHT22;39156;51.176;6.738;2023-07-20T13:00:05;27.50;38.40
53268;DHT22;39156;51.176;6.738;2023-07-20T13:02:35;27.50;38.20
53268;DHT22;39156;51.176;6.738;2023-07-20T13:05:02;27.60;38.30
53268;DHT22;39156;51.176;6.738;2023-07-20T13:07:33;27.60;37.90
53268;DHT22;39156;51.176;6.738;2023-07-20T13:10:00;27.60;38.00
53268;DHT22;39156;51.176;6.738;2023-07-20T13:12:31;27.70;38.40
53268;DHT22;39156;51.176;6.738;2023-07-20T13:14:58;27.60;37.80
53268;DHT22;39156;51.176;6.738;2023-07-20T13:17:28;27.60;37.90
53268;DHT22;39156;51.176;6.738;2023-07-20T13:19:55;27.60;37.50
53268;DHT22;39156;51.176;6.738;2023-07-20T13:22:21;27.50;37.40
53268;DHT22;39156;51.176;6.738;2023-07-20T13:24:47;27.40;37.60
53268;DHT22;39156;51.176;6.738;2023-07-20T13:27:19;27.30;37.90
53268;DHT22;39156;51.176;6.738;2023-07-20T13:29:45;27.20;38.30
53268;DHT22;39156;51.176;6.738;2023-07-20T13:32:13;27.00;38.00
53268;DHT22;39156;51.176;6.738;2023-07-20T13:34:43;26.90;38.30
53268;DHT22;39156;51.176;6.738;2023-07-20T13:37:10;26.70;38.50
53268;DHT22;39156;51.176;6.738;2023-07-20T13:39:37;26.50;38.50
53268;DHT22;39156;51.176;6.738;2023-07-20T13:42:03;26.20;38.90
53268;DHT22;39156;51.176;6.738;2023-07-20T13:44:32;26.00;38.80
53268;DHT22;39156;51.176;6.738;2023-07-20T13:46:58;25.90;39.40
53268;DHT22;39156;51.176;6.738;2023-07-20T13:49:24;25.70;39.60
53268;DHT22;39156;51.176;6.738;2023-07-20T13:51:49;25.50;39.60
53268;DHT22;39156;51.176;6.738;2023-07-20T13:54:15;25.40;39.70
53268;DHT22;39156;51.176;6.738;2023-07-20T13:56:41;25.20;39.80
53268;DHT22;39156;51.176;6.738;2023-07-20T13:59:07;25.10;40.10
53268;DHT22;39156;51.176;6.738;2023-07-20T14:01:33;24.90;40.20
53268;DHT22;39156;51.176;6.738;2023-07-20T14:03:59;24.80;40.60
53268;DHT22;39156;51.176;6.738;2023-07-20T14:06:25;24.70;40.80
53268;DHT22;39156;51.176;6.738;2023-07-20T14:08:53;24.60;41.20
53268;DHT22;39156;51.176;6.738;2023-07-20T14:11:18;24.40;41.30
53268;DHT22;39156;51.176;6.738;2023-07-20T14:13:44;24.30;41.50
53268;DHT22;39156;51.176;6.738;2023-07-20T14:16:10;24.20;41.40
53268;DHT22;39156;51.176;6.738;2023-07-20T14:18:36;24.10;41.60
53268;DHT22;39156;51.176;6.738;2023-07-20T14:21:02;24.00;41.70
53268;DHT22;39156;51.176;6.738;2023-07-20T14:23:30;24.10;41.90
53268;DHT22;39156;51.176;6.738;2023-07-20T14:25:56;24.00;42.10
53268;DHT22;39156;51.176;6.738;2023-07-20T14:28:21;24.00;42.00
53268;DHT22;39156;51.176;6.738;2023-07-20T14:30:47;24.00;42.10
53268;DHT22;39156;51.176;6.738;2023-07-20T14:33:13;24.10;42.00
53268;DHT22;39156;51.176;6.738;2023-07-20T14:35:38;24.10;42.10
53268;DHT22;39156;51.176;6.738;2023-07-20T14:38:04;24.20;42.00
53268;DHT22;39156;51.176;6.738;2023-07-20T14:40:30;24.20;41.90
53268;DHT22;39156;51.176;6.738;2023-07-20T14:42:56;24.20;41.80
53268;DHT22;39156;51.176;6.738;2023-07-20T14:45:22;24.30;41.70
53268;DHT22;39156;51.176;6.738;2023-07-20T14:47:47;24.30;42.00
53268;DHT22;39156;51.176;6.738;2023-07-20T14:50:19;24.40;41.90
53268;DHT22;39156;51.176;6.738;2023-07-20T14:52:46;24.40;41.90
53268;DHT22;39156;51.176;6.738;2023-07-20T14:55:12;24.50;41.80
53268;DHT22;39156;51.176;6.738;2023-07-20T14:57:38;24.60;41.70
53268;DHT22;39156;51.176;6.738;2023-07-20T15:00:05;24.70;42.00
53268;DHT22;39156;51.176;6.738;2023-07-20T15:02:33;24.80;41.60
53268;DHT22;39156;51.176;6.738;2023-07-20T15:04:59;24.90;41.30
53268;DHT22;39156;51.176;6.738;2023-07-20T15:07:25;25.00;41.00
53268;DHT22;39156;51.176;6.738;2023-07-20T15:09:51;25.00;41.10
53268;DHT22;39156;51.176;6.738;2023-07-20T15:12:16;25.00;40.80
53268;DHT22;39156;51.176;6.738;2023-07-20T15:14:43;25.00;40.80
53268;DHT22;39156;51.176;6.738;2023-07-20T15:17:10;25.00;40.70
53268;DHT22;39156;51.176;6.738;2023-07-20T15:19:35;25.00;40.80
53268;DHT22;39156;51.176;6.738;2023-07-20T15:22:02;25.00;41.10
53268;DHT22;39156;51.176;6.738;2023-07-20T15:24:32;25.00;41.10
53268;DHT22;39156;51.176;6.738;2023-07-20T15:26:59;25.00;40.90
53268;DHT22;39156;51.176;6.738;2023-07-20T15:29:24;25.10;41.00
53268;DHT22;39156;51.176;6.738;2023-07-20T15:31:50;25.20;41.00
53268;DHT22;39156;51.176;6.738;2023-07-20T15:34:16;25.30;41.10
53268;DHT22;39156;51.176;6.738;2023-07-20T15:36:41;25.40;40.80
53268;DHT22;39156;51.176;6.738;2023-07-20T15:39:10;25.50;40.60
53268;DHT22;39156;51.176;6.738;2023-07-20T15:41:36;25.50;40.10
53268;DHT22;39156;51.176;6.738;2023-07-20T15:44:02;25.60;40.00
53268;DHT22;39156;51.176;6.738;2023-07-20T15:49:07;25.60;39.50
53268;DHT22;39156;51.176;6.738;2023-07-20T15:51:35;25.60;39.60
53268;DHT22;39156;51.176;6.738;2023-07-20T15:54:08;25.70;40.40